METAR Data
IDs: Format: Raw Decoded Include TAF

Data at: 0206 UTC 10 Dec 2022

METAR for:KARW (Beaufort Cnty, GA, US)
Text:KARW 100155Z AUTO 05006KT 10SM OVC011 13/12 A3015 RMK AO2
Temperature: 13.0°C ( 55°F)
Dewpoint: 12.0°C ( 54°F) [RH = 94%]
Pressure (altimeter):30.15 inches Hg (1021.1 mb)
Winds:from the NE (50 degrees) at 7 MPH (6 knots; 3.1 m/s)
Visibility:10 or more sm (16+ km)
Ceiling:1100 feet AGL
Clouds: overcast cloud deck at 1100 feet AGL
QC Flag:automated observation with no human augmentation